Broome, Australia

2:26 AM AWST on October 19, 2018 (GMT +0800)
Broome International

Weather History for YBRM - June, 2018

Change the Weather History Date:

Thursday, June 14, 2018

  Actual Average Record
Temperature  
Mean Temperature 68 °F -  
Max Temperature 82 °F 85 °F - ()
Min Temperature 53 °F 58 °F - ()
Cooling Degree Days 2    
Growing Degree Days 18 (Base 50)    
Moisture  
Dew Point 40 °F    
Average Humidity 32    
Maximum Humidity 56    
Minimum Humidity 7    
Precipitation  
Precipitation 0.00 in 0.01 in - ()
Sea Level Pressure  
Sea Level Pressure 30.00 in    
Wind  
Wind Speed 11 mph ()    
Max Wind Speed 18 mph    
Max Gust Speed -    
Visibility 6.2 miles    
Events      
T = Trace of Precipitation, MM = Missing Value Source: Averaged Metar Reports

Daily Weather History Graph

Daily Weather History Graph

Search for Another Location

Airport or City:

Astronomy

Jun. 14, 2018 Rise Set
Actual Time 6:19 AM AWST 5:23 PM AWST
Civil Twilight 5:55 AM AWST 5:46 PM AWST
Nautical Twilight 5:28 AM AWST 6:14 PM AWST
Astronomical Twilight 5:01 AM AWST 6:40 PM AWST
Moon 6:26 AM AWST (6/14) 5:58 PM AWST (6/14)
Length of Visible Light 11h 51m
Length of Day
11h 03m
New Moon, 0% of the Moon is Illuminated
Jun 14
New Moon
Jun 20
First Quarter
Jun 28
Full
Jul 6
Last Quarter
Jul 13
New

Hourly Weather History & Observations

Time (AWST) Temp. Dew Point Humidity Pressure Visibility Wind Dir Wind Speed Gust Speed Precip Events Conditions
12:00 AM 69 °F 41 °F 25% 30.01 in - SE 15.0 mph - -   Clear
12:00 AM 69.8 °F 41.0 °F 35% 30.01 in 6.2 mi SE 15.0 mph - N/A   Unknown
12:30 AM 68.0 °F 39.2 °F 35% 30.01 in 6.2 mi SE 16.1 mph - N/A   Unknown
1:00 AM 68.0 °F 39.2 °F 35% 29.98 in 6.2 mi SE 18.4 mph - N/A   Unknown
1:30 AM 68.0 °F 41.0 °F 37% 29.98 in 6.2 mi SE 15.0 mph - N/A   Unknown
2:00 AM 66 °F 38 °F 24% 29.99 in - ESE 16.1 mph - -  
2:00 AM 66.2 °F 37.4 °F 35% 29.98 in 6.2 mi ESE 16.1 mph - N/A   Unknown
2:30 AM 66.2 °F 41.0 °F 40% 29.98 in 6.2 mi ESE 15.0 mph - N/A   Unknown
3:00 AM 65 °F 41 °F 30% 29.99 in - ESE 12.7 mph - -   Clear
3:00 AM 64.4 °F 41.0 °F 42% 29.98 in 6.2 mi ESE 12.7 mph - N/A   Unknown
3:30 AM 66.2 °F 42.8 °F 43% 29.98 in 6.2 mi SE 13.8 mph - N/A   Unknown
4:00 AM 64.4 °F 39.2 °F 40% 29.98 in 6.2 mi SE 12.7 mph - N/A   Unknown
4:30 AM 62.6 °F 39.2 °F 42% 29.98 in 6.2 mi SE 12.7 mph - N/A   Unknown
5:00 AM 61 °F 39 °F 33% 29.99 in - SE 12.7 mph - -  
5:00 AM 60.8 °F 39.2 °F 45% 29.98 in 6.2 mi SE 12.7 mph - N/A   Unknown
6:00 AM 55 °F 38 °F 41% 30.01 in - East 6.9 mph - -   Clear
6:00 AM 55.4 °F 37.4 °F 51% 30.01 in 6.2 mi East 6.9 mph - N/A   Unknown
6:30 AM 53.6 °F 37.4 °F 54% 30.01 in 6.2 mi ESE 5.8 mph - N/A   Unknown
7:00 AM 59.0 °F 37.4 °F 45% 30.04 in 6.2 mi SE 6.9 mph - N/A   Unknown
7:30 AM 60.8 °F 37.4 °F 42% 30.04 in 6.2 mi SE 8.1 mph - N/A   Unknown
8:00 AM 63 °F 38 °F 27% 30.05 in - SE 8.1 mph - -  
8:00 AM 62.6 °F 37.4 °F 39% 30.04 in - SE 8.1 mph - N/A   Clear
8:30 AM 64.4 °F 35.6 °F 34% 30.04 in - SE 11.5 mph - N/A   Clear
9:00 AM 67 °F 36 °F 20% 30.05 in - SE 10.4 mph - -   Clear
9:00 AM 66.2 °F 35.6 °F 32% 30.04 in - SE 10.4 mph - N/A   Clear
9:30 AM 69.8 °F 37.4 °F 31% 30.04 in 6.2 mi SE 10.4 mph - N/A   Unknown
10:00 AM 73.4 °F 32.0 °F 22% 30.04 in - East 15.0 mph - N/A   Clear
10:30 AM 78.8 °F 28.4 °F 16% 30.01 in - East 17.3 mph - N/A   Clear
11:00 AM 79 °F 27 °F 7% 30.02 in - East 17.3 mph - -  
11:00 AM 78.8 °F 26.6 °F 15% 30.01 in - East 17.3 mph - N/A   Clear
11:30 AM 80.6 °F 30.2 °F 16% 30.01 in 6.2 mi ESE 16.1 mph - N/A   Unknown
12:00 PM 79 °F 30 °F 9% 29.99 in - SE 15.0 mph - -   Clear
12:00 PM 78.8 °F 30.2 °F 17% 29.98 in 6.2 mi SE 15.0 mph - N/A   Unknown
1:00 PM 80.6 °F 39.2 °F 23% 29.95 in - SE 13.8 mph - N/A   Clear
1:30 PM 80.6 °F 33.8 °F 18% 29.95 in - SE 11.5 mph - N/A   Clear
2:00 PM 81 °F 41 °F 14% 29.95 in - SE 9.2 mph - -  
2:00 PM 80.6 °F 41.0 °F 24% 29.95 in - SE 9.2 mph - N/A   Clear
2:30 PM 80.6 °F 42.8 °F 26% 29.92 in - SSE 10.4 mph - N/A   Clear
3:00 PM 81 °F 41 °F 15% 29.94 in - SE 10.4 mph - -   Clear
3:00 PM 80.6 °F 41.0 °F 24% 29.92 in 6.2 mi SE 10.4 mph - N/A   Unknown
4:00 PM 80.6 °F 42.8 °F 26% 29.92 in 6.2 mi SE 9.2 mph - N/A   Unknown
4:30 PM 78.8 °F 39.2 °F 24% 29.95 in 6.2 mi ESE 8.1 mph - N/A   Unknown
5:00 PM 77 °F 41 °F 17% 29.95 in - East 6.9 mph - -  
5:00 PM 77.0 °F 41.0 °F 28% 29.95 in 6.2 mi East 6.9 mph - N/A   Unknown
5:30 PM 73.4 °F 41.0 °F 31% 29.95 in 6.2 mi ESE 5.8 mph - N/A   Unknown
6:00 PM 72 °F 44 °F 26% 29.98 in - ESE 5.8 mph - -   Clear
6:00 PM 71.6 °F 44.6 °F 38% 29.98 in 6.2 mi ESE 5.8 mph - N/A   Unknown
6:30 PM 73.4 °F 37.4 °F 27% 29.98 in 6.2 mi SE 6.9 mph - N/A   Unknown
7:00 PM 71.6 °F 53.6 °F 53% 29.98 in 6.2 mi SSE 5.8 mph - N/A   Unknown
7:30 PM 71.6 °F 51.8 °F 50% 30.01 in 6.2 mi SE 5.8 mph - N/A   Unknown
8:00 PM 73 °F 48 °F 29% 30.02 in - SE 5.8 mph - -  
8:00 PM 73.4 °F 48.2 °F 41% 30.01 in 6.2 mi SE 5.8 mph - N/A   Unknown
8:30 PM 69.8 °F 53.6 °F 56% 30.01 in 6.2 mi ESE 5.8 mph - N/A   Unknown
9:00 PM 72 °F 48 °F 32% 30.04 in - SE 6.9 mph - -   Clear
9:00 PM 71.6 °F 48.2 °F 43% 30.04 in 6.2 mi SE 6.9 mph - N/A   Unknown
9:30 PM 73.4 °F 42.8 °F 33% 30.04 in 6.2 mi SE 10.4 mph - N/A   Unknown
10:00 PM 71.6 °F 44.6 °F 38% 30.04 in 6.2 mi SE 9.2 mph - N/A   Unknown
10:30 PM 71.6 °F 44.6 °F 38% 30.04 in 6.2 mi SE 9.2 mph - N/A   Unknown
11:00 PM 72 °F 46 °F 28% 30.04 in - SE 9.2 mph - -  
11:00 PM 71.6 °F 46.4 °F 41% 30.04 in 6.2 mi SE 9.2 mph - N/A   Unknown
11:30 PM 69.8 °F 44.6 °F 40% 30.04 in 6.2 mi SE 10.4 mph - N/A   Unknown